Scroll down
FLIGHT INFORMATION
KLM Royal Dutch Airlines

KLM734

At Arrival Gate

TNCC
 EHAM
DATE: 2022-01-22
GATE:  -
GATE DEPARTURE: 01:54
TAKEOFF: 02:03
DATE: 2022-01-22
GATE:  -
LANDING: 11:04
GATE ARRIVAL: 11:14
FLIGHT DATA
Crew: 
Speed: 
925 kph
Altitude: 
39,061 ft
Stage Length: 
7,834.1 km
Block Time: 
9.3 hrs
Flight Time: 
9 hrs
Fuel Used: 
59,874 kg
Cleared Route: TNCC SCAPA MLIZA TRNKY OBIKE RKDIA 2750N 3440N 4230N 4820N SOMAX ATSUR GIPER DIRUM DEXEN LOMVO LUTIP BAGIT DOLOP AMPIT RISLA KEPAD HON UNGAP EBOTO BANTO SIVDA REDFA EHAM
TRACK DATA
50,000 ft 1,000 kts
AIRCRAFT INFO AND CUMULATIVE STATS
Aircraft Type: 
B772
Registration: 
SELCAL: 
QRFS
MSN/LN: 
29399 / 499
Total Flights: 
3
Total Block Time: 
23.5 hrs
Total Flight Time: 
22.7 hrs
Total Fuel Used: 
155,629 kg
DATALINK LOG | Newest first | Current as of: 2022-08-18 16:52:39
LABEL SEQUENCE CONTENT Dn/Up
QD231511:14 22.7▼ Dn
QC130611:04▼ Dn
2U2904EHAM 201025Z 34012KT 300V020 9999 VCSH FEW010 FEW022CB SCT035 04/00 Q1029 TEMPO 7000 -SHRAGS▲ Up
2S3836EHAM▼ Dn
2U0457EHAM 200925Z 33010KT 300V010 9999 FEW015 SCT037 05/M02 Q1028 NOSIG▲ Up
2S1316EHAM▼ Dn
UM204419CLEARED TO FL 390▲ Up
DM64409REQUEST FL 390 DUE TO A/C PERF▼ Dn
UM204621CLIMB TO 370▲ Up
DM67H4611WHEN CAN WE EXPECT CLIMB TO FL 370▼ Dn
UM0 UM194419UNABLE. MAINTAIN ASSIGNED ALTITUDE▲ Up
DM64409REQUEST FL 370 DUE TO A/C PERF▼ Dn
QB533202:03▼ Dn
QA442301:54 154.8▼ Dn
A33726CLEARED TO EHAM VIA SCAP1K SCAPA L335 OBIKE M576 RKDIA 27N050W 34N040W 42N030W 48N020W SOMAX ATSUR GIPER DIRUM DEXEN UY124 AMPIT L15 HON P155 SIVDA P137 REDFA REDF1A. SQUAWK 1476.▲ Up
B33716TNCC EHAM KLM734 PHBQK ▼ Dn
Q03514[LINK ACK]▲ Up
Q03514[LINK TEST]▼ Dn


AIRCRAFT HISTORY
FLIGHT DATE FLIGHT NO. ORIGIN DESTINATION CLEARED ROUTE BLOCK TIME FLIGHT TIME FUEL USED PILOT
2022-03-03KLM837EHAM WSSS EHAM ARNEM SONEB OLDOD SUVOX HMM NOMKA BIRKA IXUVU SUVUT SOPLA NOTGO SULED TALEG EKPEK BESIP PIKIB OMELO GOLOP ODNEM BERVA BALAP NARKA DENAK DINRO UDROS ABSAX GAKSU OTKOT ATNOP SIN KARDE ROLIN ODILI TETRO BARAD VERCA BAGVA SUBUT INTEV LIMTI LUSAL ADGEN ETVOL AGDAM SULEL BODKA NENIS SOMAD LOVEN IBRAV MUSEG IMKUK TASLU BJD ODBES ELOKA LUDAX ZDN DERBO SOKIR BILIP KALAT ELKEB POPOT MEMIX MORBA RK VIKIT LATOS UKBAB NOKOK NIKOT UPSOX IBANI DABKI GURVI ODUMI OPONI GUTNO OGUNA VIBAL BBS ONATI LEMEX TATUX LAMBU VEPIM MABUR LIBDI NISUN LADER MIPAK TAVUN ANPAN SATVA PUT REBED NUTGU DALAN VPL ANDOK VILAT VIH DAKUS VBA VKL MAKNA RUSBU TOPOR ARAMA WSSS12.6 hrs12.3 hrs188,397 lbMike Dryden
2022-01-22KLM734TNCC EHAM TNCC SCAPA MLIZA TRNKY OBIKE RKDIA 2750N 3440N 4230N 4820N SOMAX ATSUR GIPER DIRUM DEXEN LOMVO LUTIP BAGIT DOLOP AMPIT RISLA KEPAD HON UNGAP EBOTO BANTO SIVDA REDFA EHAM9.3 hrs9 hrs132,000 lbMike Dryden
2022-01-18KLM734TNCM TNCC TNCM PJM DANDE PORQE ANNER RAFEE RAYAS MILOK ACORA TNCC1.6 hrs1.4 hrs22,707 lbMike Dryden